NCAR-RAP Real-Time Weather Data

Output produced by METARs form (08 May 2021  01:28 UTC)
found at http://weather.rap.ucar.edu/surface/
 
KSMX 080051Z 29018G23KT 6SM HZ CLR 14/08 A3000 RMK AO2 SLP162 T01440078
KSMX 072351Z 29020G26KT 6SM HZ CLR 15/07 A3001 RMK AO2 PK WND 29027/2256 SLP164 T01500072 10172 20150 56014
KSMX 072251Z 29021G25KT 5SM HZ CLR 16/08 A3002 RMK AO2 PK WND 29030/2204 SLP167 T01560078
KSMX 072151Z 29024G28KT 5SM HZ CLR 16/08 A3003 RMK AO2 PK WND 29028/2151 SLP170 T01610078
KSMX 072051Z 30018KT 6SM HZ CLR 17/08 A3005 RMK AO2 SLP178 T01670078 58004
KSMX 071951Z 30019KT 5SM HZ CLR 17/09 A3006 RMK AO2 SLP181 T01670089
KSMX 071851Z 28014KT 7SM CLR 17/09 A3006 RMK AO2 SLP181 T01670089
KSMX 071751Z 30009KT 8SM CLR 16/09 A3006 RMK AO2 SLP182 T01610094 10161 20100 58001
KSMX 071651Z 31010KT 7SM SCT012 14/09 A3007 RMK AO2 SLP183 T01440094
KSMX 071649Z 31010KT 7SM SCT012 14/09 A3007 RMK AO2
KSMX 071632Z 32009KT 7SM BKN010 OVC014 12/09 A3007 RMK AO2 CIG 008V012 T01220089
KSMX 071551Z 29005KT 8SM OVC005 11/09 A3007 RMK AO2 SLP184 T01110094
KSMX 071451Z 32007KT 4SM BR OVC002 11/09 A3007 RMK AO2 CIG 002V005 SLP185 T01060089 53010
KSMX 071442Z 30007KT 3SM BR OVC002 11/09 A3007 RMK AO2 CIG 002V005 T01060089
KSMX 071418Z 31007KT 1 3/4SM BR OVC002 10/09 A3006 RMK AO2 T01000089
KSMX 071401Z 31006KT 5SM BR OVC004 10/08 A3006 RMK AO2 T01000083
KSMX 071351Z 33007KT 6SM BR OVC005 11/09 A3005 RMK AO2 SLP180 T01060089
KSMX 071251Z 29004KT 8SM OVC007 11/09 A3003 RMK AO2 SLP172 T01060089